createdAt,value
2023-04-16T00:00:47.078Z,94678.00
2023-04-16T00:01:47.039Z,94679.00
2023-04-16T00:02:47.187Z,94676.00
2023-04-16T00:03:47.410Z,94681.00
2023-04-16T00:04:47.143Z,94679.00
2023-04-16T00:05:47.015Z,94679.00
2023-04-16T00:06:47.011Z,94679.00
2023-04-16T00:07:47.028Z,94679.00
2023-04-16T00:08:47.053Z,94679.00
2023-04-16T00:09:47.848Z,94679.00
2023-04-16T00:10:46.980Z,94681.00
2023-04-16T00:11:47.009Z,94681.00
2023-04-16T00:12:46.958Z,94679.00
2023-04-16T00:13:47.002Z,94681.00
2023-04-16T00:14:46.970Z,94681.00
2023-04-16T00:15:46.968Z,94681.00
2023-04-16T00:16:47.018Z,94679.00
2023-04-16T00:17:47.036Z,94678.00
2023-04-16T00:18:46.997Z,94678.00
2023-04-16T00:19:46.953Z,94681.00
2023-04-16T00:20:46.986Z,94679.00
2023-04-16T00:21:46.949Z,94679.00
2023-04-16T00:22:46.951Z,94679.00
2023-04-16T00:23:46.972Z,94679.00
2023-04-16T00:24:46.954Z,94681.00
2023-04-16T00:25:46.945Z,94683.00
2023-04-16T00:26:46.943Z,94683.00
2023-04-16T00:27:46.937Z,94687.00
2023-04-16T00:28:46.978Z,94683.00
2023-04-16T00:29:46.954Z,94685.00
2023-04-16T00:30:47.015Z,94685.00
2023-04-16T00:31:46.940Z,94685.00
2023-04-16T00:32:46.986Z,94685.00
2023-04-16T00:33:46.918Z,94685.00
2023-04-16T00:34:46.934Z,94683.00
2023-04-16T00:35:46.892Z,94683.00
2023-04-16T00:36:46.921Z,94685.00
2023-04-16T00:37:47.882Z,94685.00
2023-04-16T00:38:46.925Z,94685.00
2023-04-16T00:39:46.933Z,94685.00
2023-04-16T00:40:46.911Z,94687.00
2023-04-16T00:41:46.917Z,94683.00
2023-04-16T00:42:46.907Z,94687.00
2023-04-16T00:43:46.890Z,94687.00
2023-04-16T00:44:46.929Z,94683.00
2023-04-16T00:45:46.908Z,94687.00
2023-04-16T00:46:46.951Z,94685.00
2023-04-16T00:47:46.920Z,94687.00
2023-04-16T00:48:46.908Z,94691.00
2023-04-16T00:49:46.901Z,94689.00
2023-04-16T00:50:46.877Z,94689.00
2023-04-16T00:51:46.871Z,94689.00
2023-04-16T00:52:46.893Z,94687.00
2023-04-16T00:53:46.855Z,94689.00
2023-04-16T00:54:46.884Z,94689.00
2023-04-16T00:55:46.916Z,94685.00
2023-04-16T00:56:46.875Z,94689.00
2023-04-16T00:57:46.907Z,94689.00
2023-04-16T00:58:46.863Z,94689.00
2023-04-16T00:59:46.864Z,94689.00
2023-04-16T01:00:46.837Z,94691.00
2023-04-16T01:01:46.882Z,94693.00
2023-04-16T01:02:46.932Z,94691.00
2023-04-16T01:03:46.917Z,94691.00
2023-04-16T01:04:46.823Z,94689.00
2023-04-16T01:05:46.863Z,94689.00
2023-04-16T01:06:46.827Z,94687.00
2023-04-16T01:07:46.843Z,94685.00
2023-04-16T01:08:46.840Z,94687.00
2023-04-16T01:09:46.839Z,94687.00
2023-04-16T01:10:46.838Z,94687.00
2023-04-16T01:11:46.861Z,94685.00
2023-04-16T01:12:46.784Z,94685.00
2023-04-16T01:13:46.819Z,94683.00
2023-04-16T01:14:46.828Z,94685.00
2023-04-16T01:15:46.873Z,94685.00
2023-04-16T01:16:46.807Z,94685.00
2023-04-16T01:17:46.824Z,94685.00
2023-04-16T01:18:46.770Z,94687.00
2023-04-16T01:19:46.784Z,94689.00
2023-04-16T01:20:46.786Z,94689.00
2023-04-16T01:21:46.789Z,94687.00
2023-04-16T01:22:46.781Z,94689.00
2023-04-16T01:23:46.801Z,94687.00
2023-04-16T01:24:46.784Z,94687.00
2023-04-16T01:25:46.776Z,94691.00
2023-04-16T01:26:46.785Z,94691.00
2023-04-16T01:27:46.755Z,94691.00
2023-04-16T01:28:46.791Z,94695.00
2023-04-16T01:29:46.776Z,94695.00
2023-04-16T01:30:46.835Z,94693.00
2023-04-16T01:31:46.968Z,94693.00
2023-04-16T01:32:46.803Z,94693.00
2023-04-16T01:33:46.790Z,94695.00
2023-04-16T01:34:46.805Z,94695.00
2023-04-16T01:35:46.784Z,94697.00
2023-04-16T01:36:46.769Z,94695.00
2023-04-16T01:37:46.796Z,94699.00
2023-04-16T01:38:48.407Z,94697.00
2023-04-16T01:39:46.803Z,94695.00
2023-04-16T01:40:46.798Z,94697.00
2023-04-16T01:41:46.812Z,94699.00
2023-04-16T01:42:46.812Z,94701.00
2023-04-16T01:43:46.796Z,94701.00
2023-04-16T01:44:46.782Z,94699.00
2023-04-16T01:45:46.802Z,94701.00
2023-04-16T01:46:46.820Z,94701.00
2023-04-16T01:47:46.810Z,94703.00
2023-04-16T01:48:46.782Z,94703.00
2023-04-16T01:49:46.814Z,94703.00
2023-04-16T01:50:46.794Z,94705.00
2023-04-16T01:51:46.793Z,94707.00
2023-04-16T01:52:46.816Z,94709.00
2023-04-16T01:53:46.842Z,94709.00
2023-04-16T01:54:46.870Z,94709.00
2023-04-16T01:55:46.831Z,94709.00
2023-04-16T01:56:46.821Z,94709.00
2023-04-16T01:57:46.824Z,94707.00
2023-04-16T01:58:46.807Z,94711.00
2023-04-16T01:59:46.802Z,94707.00
2023-04-16T02:00:46.879Z,94711.00
2023-04-16T02:01:46.886Z,94713.00
2023-04-16T02:02:46.988Z,94711.00
2023-04-16T02:03:47.016Z,94713.00
2023-04-16T02:04:46.831Z,94711.00
2023-04-16T02:05:46.883Z,94711.00
2023-04-16T02:06:46.869Z,94707.00
2023-04-16T02:07:46.853Z,94711.00
2023-04-16T02:08:46.881Z,94707.00
2023-04-16T02:09:46.862Z,94709.00
2023-04-16T02:10:46.859Z,94711.00
2023-04-16T02:11:46.873Z,94713.00
2023-04-16T02:12:46.874Z,94711.00
2023-04-16T02:13:46.885Z,94711.00
2023-04-16T02:14:46.885Z,94711.00
2023-04-16T02:15:46.868Z,94709.00
2023-04-16T02:16:46.974Z,94711.00
2023-04-16T02:17:46.938Z,94709.00
2023-04-16T02:18:46.939Z,94709.00
2023-04-16T02:19:46.924Z,94713.00
2023-04-16T02:20:46.913Z,94711.00
2023-04-16T02:21:46.913Z,94713.00
2023-04-16T02:22:46.901Z,94715.00
2023-04-16T02:23:46.902Z,94713.00
2023-04-16T02:24:46.925Z,94719.00
2023-04-16T02:25:46.917Z,94717.00
2023-04-16T02:26:46.958Z,94715.00
2023-04-16T02:27:46.950Z,94715.00
2023-04-16T02:28:46.938Z,94717.00
2023-04-16T02:29:46.938Z,94719.00
2023-04-16T02:30:46.935Z,94717.00
2023-04-16T02:31:46.966Z,94719.00
2023-04-16T02:32:46.963Z,94717.00
2023-04-16T02:33:46.929Z,94717.00
2023-04-16T02:34:46.923Z,94719.00
2023-04-16T02:35:46.948Z,94721.00
2023-04-16T02:36:46.935Z,94721.00
2023-04-16T02:37:46.958Z,94721.00
2023-04-16T02:38:46.952Z,94725.00
2023-04-16T02:39:47.923Z,94719.00
2023-04-16T02:40:46.960Z,94721.00
2023-04-16T02:41:46.956Z,94721.00
2023-04-16T02:42:46.971Z,94721.00
2023-04-16T02:43:46.945Z,94723.00
2023-04-16T02:44:46.939Z,94725.00
2023-04-16T02:45:47.011Z,94725.00
2023-04-16T02:46:46.991Z,94726.00
2023-04-16T02:47:46.978Z,94725.00
2023-04-16T02:48:46.960Z,94726.00
2023-04-16T02:49:46.951Z,94725.00
2023-04-16T02:50:46.935Z,94725.00
2023-04-16T02:51:46.970Z,94723.00
2023-04-16T02:52:46.974Z,94726.00
2023-04-16T02:53:46.976Z,94726.00
2023-04-16T02:54:46.968Z,94728.00
2023-04-16T02:55:46.972Z,94728.00
2023-04-16T02:56:47.015Z,94728.00
2023-04-16T02:57:46.997Z,94730.00
2023-04-16T02:58:47.010Z,94730.00
2023-04-16T02:59:46.972Z,94732.00
2023-04-16T03:00:47.013Z,94732.00
2023-04-16T03:01:47.113Z,94734.00
2023-04-16T03:02:47.106Z,94734.00
2023-04-16T03:03:47.478Z,94736.00
2023-04-16T03:04:47.029Z,94736.00
2023-04-16T03:05:46.994Z,94738.00
2023-04-16T03:06:46.995Z,94738.00
2023-04-16T03:07:47.000Z,94734.00
2023-04-16T03:08:47.004Z,94742.00
2023-04-16T03:09:47.025Z,94734.00
2023-04-16T03:10:47.026Z,94740.00
2023-04-16T03:11:47.024Z,94734.00
2023-04-16T03:12:47.033Z,94736.00
2023-04-16T03:13:47.049Z,94738.00
2023-04-16T03:14:47.062Z,94738.00
2023-04-16T03:15:47.064Z,94738.00
2023-04-16T03:16:47.084Z,94740.00
2023-04-16T03:17:47.085Z,94736.00
2023-04-16T03:18:47.077Z,94742.00
2023-04-16T03:19:47.073Z,94742.00
2023-04-16T03:20:47.089Z,94742.00
2023-04-16T03:21:47.080Z,94740.00
2023-04-16T03:22:47.080Z,94742.00
2023-04-16T03:23:47.086Z,94746.00
2023-04-16T03:24:47.089Z,94742.00
2023-04-16T03:25:47.112Z,94742.00
2023-04-16T03:26:47.091Z,94744.00
2023-04-16T03:27:47.110Z,94742.00
2023-04-16T03:28:47.109Z,94740.00
2023-04-16T03:29:47.125Z,94742.00
2023-04-16T03:30:47.145Z,94742.00
2023-04-16T03:31:47.135Z,94740.00
2023-04-16T03:32:47.278Z,94740.00
2023-04-16T03:33:47.159Z,94738.00
2023-04-16T03:34:47.171Z,94738.00
2023-04-16T03:35:47.176Z,94734.00
2023-04-16T03:36:47.190Z,94738.00
2023-04-16T03:37:47.196Z,94740.00
2023-04-16T03:38:47.181Z,94742.00
2023-04-16T03:39:47.205Z,94740.00
2023-04-16T03:40:47.922Z,94744.00
2023-04-16T03:41:47.203Z,94746.00
2023-04-16T03:42:47.230Z,94746.00
2023-04-16T03:43:47.224Z,94744.00
2023-04-16T03:44:47.233Z,94746.00
2023-04-16T03:45:47.213Z,94746.00
2023-04-16T03:46:47.343Z,94746.00
2023-04-16T03:47:47.292Z,94746.00
2023-04-16T03:48:47.245Z,94746.00
2023-04-16T03:49:47.253Z,94748.00
2023-04-16T03:50:47.252Z,94744.00
2023-04-16T03:51:47.255Z,94748.00
2023-04-16T03:52:47.272Z,94746.00
2023-04-16T03:53:47.239Z,94750.00
2023-04-16T03:54:47.269Z,94750.00
2023-04-16T03:55:47.286Z,94752.00
2023-04-16T03:56:47.269Z,94750.00
2023-04-16T03:57:47.318Z,94752.00
2023-04-16T03:58:47.306Z,94752.00
2023-04-16T03:59:47.340Z,94754.00
2023-04-16T04:00:47.350Z,94752.00
2023-04-16T04:01:47.381Z,94754.00
2023-04-16T04:02:47.581Z,94752.00
2023-04-16T04:03:47.475Z,94754.00
2023-04-16T04:04:47.632Z,94756.00
2023-04-16T04:05:47.378Z,94756.00
2023-04-16T04:06:47.414Z,94756.00
2023-04-16T04:07:47.408Z,94758.00
2023-04-16T04:08:47.455Z,94760.00
2023-04-16T04:09:47.450Z,94760.00
2023-04-16T04:10:47.480Z,94762.00
2023-04-16T04:11:47.476Z,94764.00
2023-04-16T04:12:47.498Z,94766.00
2023-04-16T04:13:47.550Z,94768.00
2023-04-16T04:14:47.515Z,94766.00
2023-04-16T04:15:47.588Z,94770.00
2023-04-16T04:16:47.673Z,94766.00
2023-04-16T04:17:47.628Z,94772.00
2023-04-16T04:18:47.597Z,94766.00
2023-04-16T04:20:00.422Z,94766.00
2023-04-16T04:20:48.582Z,94768.00
2023-04-16T04:21:47.546Z,94768.00
2023-04-16T04:22:47.584Z,94768.00
2023-04-16T04:23:47.564Z,94772.00
2023-04-16T04:24:47.548Z,94773.00
2023-04-16T04:25:47.647Z,94775.00
2023-04-16T04:26:47.512Z,94773.00
2023-04-16T04:27:47.520Z,94775.00
2023-04-16T04:28:47.513Z,94773.00
2023-04-16T04:29:47.524Z,94775.00
2023-04-16T04:30:47.513Z,94773.00
2023-04-16T04:31:47.539Z,94777.00
2023-04-16T04:32:47.542Z,94777.00
2023-04-16T04:33:47.492Z,94781.00
2023-04-16T04:34:47.501Z,94783.00
2023-04-16T04:35:47.491Z,94785.00
2023-04-16T04:36:47.468Z,94785.00
2023-04-16T04:37:47.436Z,94787.00
2023-04-16T04:38:47.434Z,94785.00
2023-04-16T04:39:47.460Z,94789.00
2023-04-16T04:40:47.448Z,94789.00
2023-04-16T04:41:47.557Z,94787.00
2023-04-16T04:42:48.393Z,94787.00
2023-04-16T04:43:47.417Z,94795.00
2023-04-16T04:44:47.408Z,94791.00
2023-04-16T04:45:47.460Z,94795.00
2023-04-16T04:46:47.390Z,94795.00
2023-04-16T04:47:47.406Z,94799.00
2023-04-16T04:48:47.347Z,94799.00
2023-04-16T04:49:47.381Z,94799.00
2023-04-16T04:50:47.322Z,94801.00
2023-04-16T04:51:47.339Z,94799.00
2023-04-16T04:52:47.349Z,94801.00
2023-04-16T04:53:47.351Z,94801.00
2023-04-16T04:54:47.328Z,94801.00
2023-04-16T04:55:49.285Z,94799.00
2023-04-16T04:56:47.318Z,94801.00
2023-04-16T04:57:47.285Z,94801.00
2023-04-16T04:58:47.328Z,94799.00
2023-04-16T04:59:47.293Z,94801.00
2023-04-16T05:00:47.301Z,94805.00
2023-04-16T05:01:47.274Z,94803.00
2023-04-16T05:02:47.354Z,94801.00
2023-04-16T05:03:47.420Z,94799.00
2023-04-16T05:04:47.299Z,94801.00
2023-04-16T05:05:47.237Z,94801.00
2023-04-16T05:06:47.256Z,94801.00
2023-04-16T05:07:47.211Z,94805.00
2023-04-16T05:08:47.224Z,94807.00
2023-04-16T05:09:47.220Z,94807.00
2023-04-16T05:10:47.193Z,94809.00
2023-04-16T05:11:47.214Z,94807.00
2023-04-16T05:12:48.234Z,94809.00
2023-04-16T05:13:47.215Z,94815.00
2023-04-16T05:14:47.182Z,94815.00
2023-04-16T05:15:47.196Z,94813.00
2023-04-16T05:16:47.225Z,94817.00
2023-04-16T05:17:47.157Z,94817.00
2023-04-16T05:18:47.149Z,94819.00
2023-04-16T05:19:47.100Z,94817.00
2023-04-16T05:20:47.137Z,94821.00
2023-04-16T05:21:47.160Z,94821.00
2023-04-16T05:22:47.160Z,94823.00
2023-04-16T05:23:47.260Z,94823.00
2023-04-16T05:24:47.196Z,94823.00
2023-04-16T05:25:47.223Z,94823.00
2023-04-16T05:26:47.213Z,94825.00
2023-04-16T05:27:47.244Z,94825.00
2023-04-16T05:28:47.267Z,94827.00
2023-04-16T05:29:47.288Z,94827.00
2023-04-16T05:30:47.277Z,94828.00
2023-04-16T05:31:47.290Z,94828.00
2023-04-16T05:32:47.326Z,94830.00
2023-04-16T05:33:47.316Z,94832.00
2023-04-16T05:34:47.294Z,94834.00
2023-04-16T05:35:47.315Z,94832.00
2023-04-16T05:36:47.347Z,94838.00
2023-04-16T05:37:47.348Z,94840.00
2023-04-16T05:38:47.396Z,94836.00
2023-04-16T05:39:47.360Z,94840.00
2023-04-16T05:40:47.412Z,94840.00
2023-04-16T05:41:47.404Z,94844.00
2023-04-16T05:42:48.019Z,94840.00
2023-04-16T05:43:47.436Z,94842.00
2023-04-16T05:44:47.443Z,94842.00
2023-04-16T05:45:47.509Z,94844.00
2023-04-16T05:46:47.481Z,94844.00
2023-04-16T05:47:47.535Z,94844.00
2023-04-16T05:48:47.493Z,94844.00
2023-04-16T05:49:47.517Z,94846.00
2023-04-16T05:50:47.534Z,94846.00
2023-04-16T05:51:47.843Z,94850.00
2023-04-16T05:52:47.528Z,94850.00
2023-04-16T05:53:47.573Z,94850.00
2023-04-16T05:54:47.585Z,94850.00
2023-04-16T05:55:47.595Z,94854.00
2023-04-16T05:56:47.612Z,94854.00
2023-04-16T05:57:47.614Z,94856.00
2023-04-16T05:58:47.647Z,94856.00
2023-04-16T05:59:47.681Z,94860.00
2023-04-16T06:00:47.678Z,94862.00
2023-04-16T06:01:47.730Z,94860.00
2023-04-16T06:02:47.809Z,94860.00
2023-04-16T06:03:47.774Z,94860.00
2023-04-16T06:04:47.711Z,94862.00
2023-04-16T06:05:47.782Z,94862.00
2023-04-16T06:06:47.734Z,94864.00
2023-04-16T06:07:47.750Z,94864.00
2023-04-16T06:08:47.761Z,94864.00
2023-04-16T06:09:47.784Z,94866.00
2023-04-16T06:10:47.783Z,94868.00
2023-04-16T06:11:47.803Z,94868.00
2023-04-16T06:12:47.820Z,94868.00
2023-04-16T06:13:47.814Z,94864.00
2023-04-16T06:14:47.854Z,94868.00
2023-04-16T06:15:47.891Z,94866.00
2023-04-16T06:16:47.869Z,94866.00
2023-04-16T06:17:47.864Z,94868.00
2023-04-16T06:18:47.839Z,94866.00
2023-04-16T06:19:47.885Z,94866.00
2023-04-16T06:20:47.855Z,94868.00
2023-04-16T06:21:47.888Z,94868.00
2023-04-16T06:22:47.881Z,94870.00
2023-04-16T06:23:47.909Z,94868.00
2023-04-16T06:24:47.960Z,94870.00
2023-04-16T06:25:47.920Z,94872.00
2023-04-16T06:26:47.953Z,94870.00
2023-04-16T06:27:47.976Z,94870.00
2023-04-16T06:28:47.973Z,94868.00
2023-04-16T06:29:47.949Z,94870.00
2023-04-16T06:30:47.962Z,94868.00
2023-04-16T06:31:48.122Z,94870.00
2023-04-16T06:32:48.161Z,94870.00
2023-04-16T06:33:48.044Z,94872.00
2023-04-16T06:34:48.043Z,94872.00
2023-04-16T06:35:48.041Z,94874.00
2023-04-16T06:36:48.067Z,94872.00
2023-04-16T06:37:48.054Z,94872.00
2023-04-16T06:38:48.073Z,94872.00
2023-04-16T06:39:48.088Z,94870.00
2023-04-16T06:40:48.102Z,94870.00
2023-04-16T06:41:48.087Z,94874.00
2023-04-16T06:42:48.110Z,94872.00
2023-04-16T06:43:48.094Z,94868.00
2023-04-16T06:44:48.136Z,94868.00
2023-04-16T06:45:48.120Z,94872.00
2023-04-16T06:46:48.173Z,94872.00
2023-04-16T06:47:48.199Z,94872.00
2023-04-16T06:48:48.148Z,94872.00
2023-04-16T06:49:48.132Z,94872.00
2023-04-16T06:50:48.173Z,94870.00
2023-04-16T06:51:48.131Z,94868.00
2023-04-16T06:52:48.199Z,94866.00
2023-04-16T06:53:48.195Z,94868.00
2023-04-16T06:54:48.158Z,94870.00
2023-04-16T06:55:48.166Z,94868.00
2023-04-16T06:56:48.154Z,94868.00
2023-04-16T06:57:48.184Z,94870.00
2023-04-16T06:58:48.201Z,94868.00
2023-04-16T06:59:48.207Z,94868.00
2023-04-16T07:00:48.233Z,94866.00
2023-04-16T07:01:48.255Z,94868.00
2023-04-16T07:02:48.345Z,94866.00
2023-04-16T07:03:48.508Z,94866.00
2023-04-16T07:04:48.204Z,94866.00
2023-04-16T07:05:48.227Z,94870.00
2023-04-16T07:06:48.192Z,94872.00
2023-04-16T07:07:48.186Z,94872.00
2023-04-16T07:08:48.194Z,94874.00
2023-04-16T07:09:48.207Z,94874.00
2023-04-16T07:10:48.193Z,94877.00
2023-04-16T07:11:48.231Z,94877.00
2023-04-16T07:12:48.209Z,94879.00
2023-04-16T07:13:48.245Z,94879.00
2023-04-16T07:14:48.230Z,94879.00
2023-04-16T07:15:48.222Z,94879.00
2023-04-16T07:16:48.284Z,94879.00
2023-04-16T07:17:48.275Z,94877.00
2023-04-16T07:18:48.216Z,94877.00
2023-04-16T07:19:48.245Z,94879.00
2023-04-16T07:20:48.248Z,94877.00
2023-04-16T07:21:48.226Z,94877.00
2023-04-16T07:22:48.237Z,94881.00
2023-04-16T07:23:48.251Z,94877.00
2023-04-16T07:24:48.266Z,94877.00
2023-04-16T07:25:48.269Z,94879.00
2023-04-16T07:26:48.259Z,94881.00
2023-04-16T07:27:48.255Z,94881.00
2023-04-16T07:28:48.273Z,94889.00
2023-04-16T07:29:48.235Z,94889.00
2023-04-16T07:30:48.309Z,94891.00
2023-04-16T07:31:48.290Z,94893.00
2023-04-16T07:32:48.276Z,94893.00
2023-04-16T07:33:48.274Z,94893.00
2023-04-16T07:34:48.269Z,94895.00
2023-04-16T07:35:48.288Z,94897.00
2023-04-16T07:36:48.268Z,94901.00
2023-04-16T07:37:48.300Z,94897.00
2023-04-16T07:38:48.304Z,94897.00
2023-04-16T07:39:48.255Z,94901.00
2023-04-16T07:40:48.295Z,94903.00
2023-04-16T07:41:48.316Z,94903.00
2023-04-16T07:42:48.264Z,94903.00
2023-04-16T07:43:48.261Z,94903.00
2023-04-16T07:44:48.257Z,94905.00
2023-04-16T07:45:48.293Z,94907.00
2023-04-16T07:46:48.315Z,94907.00
2023-04-16T07:47:48.307Z,94907.00
2023-04-16T07:48:48.228Z,94905.00
2023-04-16T07:49:48.231Z,94907.00
2023-04-16T07:50:48.252Z,94905.00
2023-04-16T07:51:48.252Z,94907.00
2023-04-16T07:52:48.255Z,94907.00
2023-04-16T07:53:48.262Z,94909.00
2023-04-16T07:54:48.242Z,94911.00
2023-04-16T07:55:48.268Z,94909.00
2023-04-16T07:56:48.253Z,94909.00
2023-04-16T07:57:48.236Z,94911.00
2023-04-16T07:58:48.269Z,94911.00
2023-04-16T07:59:48.276Z,94909.00
2023-04-16T08:00:49.298Z,94909.00
2023-04-16T08:01:48.476Z,94907.00
2023-04-16T08:02:48.461Z,94909.00
2023-04-16T08:03:48.541Z,94907.00
2023-04-16T08:04:48.442Z,94913.00
2023-04-16T08:05:48.321Z,94911.00
2023-04-16T08:06:48.332Z,94913.00
2023-04-16T08:07:48.296Z,94915.00
2023-04-16T08:08:48.327Z,94917.00
2023-04-16T08:09:48.310Z,94915.00
2023-04-16T08:10:48.295Z,94919.00
2023-04-16T08:11:48.325Z,94919.00
2023-04-16T08:12:48.312Z,94919.00
2023-04-16T08:13:48.347Z,94921.00
2023-04-16T08:14:48.333Z,94921.00
2023-04-16T08:15:48.358Z,94921.00
2023-04-16T08:16:48.385Z,94921.00
2023-04-16T08:17:48.382Z,94923.00
2023-04-16T08:18:48.379Z,94923.00
2023-04-16T08:19:48.386Z,94927.00
2023-04-16T08:20:48.391Z,94925.00
2023-04-16T08:21:48.433Z,94927.00
2023-04-16T08:22:48.474Z,94930.00
2023-04-16T08:23:48.457Z,94932.00
2023-04-16T08:24:48.500Z,94932.00
2023-04-16T08:25:48.521Z,94932.00
2023-04-16T08:26:48.536Z,94932.00
2023-04-16T08:27:48.597Z,94932.00
2023-04-16T08:28:48.637Z,94932.00
2023-04-16T08:29:48.664Z,94932.00
2023-04-16T08:30:48.727Z,94934.00
2023-04-16T08:31:48.833Z,94932.00
2023-04-16T08:32:50.054Z,94934.00
2023-04-16T08:33:48.814Z,94936.00
2023-04-16T08:34:48.851Z,94936.00
2023-04-16T08:35:48.923Z,94940.00
2023-04-16T08:36:48.941Z,94936.00
2023-04-16T08:37:49.009Z,94940.00
2023-04-16T08:38:49.056Z,94940.00
2023-04-16T08:39:49.111Z,94940.00
2023-04-16T08:40:49.170Z,94940.00
2023-04-16T08:41:49.201Z,94940.00
2023-04-16T08:42:49.234Z,94942.00
2023-04-16T08:43:49.338Z,94942.00
2023-04-16T08:44:49.562Z,94944.00
2023-04-16T08:45:49.429Z,94942.00
2023-04-16T08:46:49.514Z,94942.00
2023-04-16T08:47:49.653Z,94942.00
2023-04-16T08:48:49.576Z,94942.00
2023-04-16T08:49:49.609Z,94944.00
2023-04-16T08:50:49.646Z,94942.00
2023-04-16T08:51:49.740Z,94942.00
2023-04-16T08:52:49.796Z,94948.00
2023-04-16T08:53:49.825Z,94948.00
2023-04-16T08:54:56.939Z,94948.00
2023-04-16T08:55:50.874Z,94946.00
2023-04-16T08:56:49.886Z,94946.00
2023-04-16T08:57:49.878Z,94946.00
2023-04-16T08:58:49.857Z,94946.00
2023-04-16T08:59:49.836Z,94946.00
2023-04-16T09:00:49.835Z,94948.00
2023-04-16T09:01:49.892Z,94946.00
2023-04-16T09:02:50.241Z,94944.00
2023-04-16T09:03:50.091Z,94948.00
2023-04-16T09:04:50.032Z,94946.00
2023-04-16T09:05:50.023Z,94946.00
2023-04-16T09:06:50.067Z,94946.00
2023-04-16T09:07:50.116Z,94946.00
2023-04-16T09:08:50.210Z,94948.00
2023-04-16T09:09:50.240Z,94948.00
2023-04-16T09:10:50.308Z,94950.00
2023-04-16T09:11:50.383Z,94948.00
2023-04-16T09:12:50.458Z,94948.00
2023-04-16T09:13:50.511Z,94950.00
2023-04-16T09:14:50.575Z,94950.00
2023-04-16T09:15:50.668Z,94952.00
2023-04-16T09:16:50.691Z,94950.00
2023-04-16T09:17:50.790Z,94950.00
2023-04-16T09:18:50.800Z,94948.00
2023-04-16T09:19:50.880Z,94948.00
2023-04-16T09:20:50.964Z,94948.00
2023-04-16T09:21:50.962Z,94954.00
2023-04-16T09:22:51.069Z,94954.00
2023-04-16T09:23:51.092Z,94954.00
2023-04-16T09:24:51.173Z,94952.00
2023-04-16T09:25:51.249Z,94952.00
2023-04-16T09:26:51.272Z,94954.00
2023-04-16T09:27:51.352Z,94952.00
2023-04-16T09:28:51.454Z,94954.00
2023-04-16T09:29:51.467Z,94950.00
2023-04-16T09:30:51.539Z,94952.00
2023-04-16T09:31:51.629Z,94952.00
2023-04-16T09:32:51.713Z,94952.00
2023-04-16T09:33:51.704Z,94950.00
2023-04-16T09:34:51.766Z,94952.00
2023-04-16T09:35:51.797Z,94952.00
2023-04-16T09:36:51.891Z,94948.00
2023-04-16T09:37:51.924Z,94950.00
2023-04-16T09:38:51.994Z,94952.00
2023-04-16T09:39:52.037Z,94950.00
2023-04-16T09:40:52.121Z,94948.00
2023-04-16T09:41:52.152Z,94950.00
2023-04-16T09:42:52.209Z,94948.00
2023-04-16T09:43:52.304Z,94948.00
2023-04-16T09:44:52.322Z,94950.00
2023-04-16T09:45:52.479Z,94946.00
2023-04-16T09:46:52.531Z,94948.00
2023-04-16T09:47:52.576Z,94944.00
2023-04-16T09:48:52.595Z,94946.00
2023-04-16T09:49:52.645Z,94946.00
2023-04-16T09:50:52.705Z,94944.00
2023-04-16T09:51:53.697Z,94944.00
2023-04-16T09:52:52.856Z,94946.00
2023-04-16T09:53:52.923Z,94946.00
2023-04-16T09:54:52.951Z,94946.00
2023-04-16T09:55:53.012Z,94944.00
2023-04-16T09:56:53.092Z,94942.00
2023-04-16T09:57:53.108Z,94944.00
2023-04-16T09:58:53.197Z,94946.00
2023-04-16T09:59:53.257Z,94942.00
2023-04-16T10:00:53.357Z,94948.00
2023-04-16T10:01:57.254Z,94944.00
2023-04-16T10:02:54.447Z,94946.00
2023-04-16T10:03:53.483Z,94948.00
2023-04-16T10:04:53.471Z,94942.00
2023-04-16T10:05:53.370Z,94944.00
2023-04-16T10:06:53.313Z,94946.00
2023-04-16T10:07:53.359Z,94942.00
2023-04-16T10:08:53.362Z,94944.00
2023-04-16T10:09:53.339Z,94944.00
2023-04-16T10:10:53.340Z,94942.00
2023-04-16T10:11:53.395Z,94944.00
2023-04-16T10:12:53.462Z,94942.00
2023-04-16T10:13:53.509Z,94944.00
2023-04-16T10:14:53.570Z,94946.00
2023-04-16T10:15:53.624Z,94944.00
2023-04-16T10:16:53.666Z,94944.00
2023-04-16T10:17:53.895Z,94940.00
2023-04-16T10:18:53.792Z,94944.00
2023-04-16T10:19:53.840Z,94942.00
2023-04-16T10:20:53.920Z,94942.00
2023-04-16T10:21:53.945Z,94940.00
2023-04-16T10:22:54.028Z,94942.00
2023-04-16T10:23:54.078Z,94940.00
2023-04-16T10:24:54.125Z,94938.00
2023-04-16T10:25:55.152Z,94940.00
2023-04-16T10:26:54.233Z,94940.00
2023-04-16T10:27:54.179Z,94942.00
2023-04-16T10:28:54.182Z,94940.00
2023-04-16T10:29:54.140Z,94940.00
2023-04-16T10:30:54.183Z,94940.00
2023-04-16T10:31:54.142Z,94944.00
2023-04-16T10:32:54.174Z,94944.00
2023-04-16T10:33:54.164Z,94944.00
2023-04-16T10:34:54.129Z,94942.00
2023-04-16T10:36:01.291Z,94944.00
2023-04-16T10:36:55.083Z,94944.00
2023-04-16T10:37:54.089Z,94944.00
2023-04-16T10:38:54.101Z,94944.00
2023-04-16T10:39:54.073Z,94944.00
2023-04-16T10:40:54.096Z,94946.00
2023-04-16T10:41:54.093Z,94944.00
2023-04-16T10:42:54.596Z,94944.00
2023-04-16T10:43:54.085Z,94942.00
2023-04-16T10:44:54.094Z,94942.00
2023-04-16T10:45:54.113Z,94944.00
2023-04-16T10:46:54.151Z,94940.00
2023-04-16T10:47:54.282Z,94940.00
2023-04-16T10:48:54.336Z,94942.00
2023-04-16T10:49:54.344Z,94940.00
2023-04-16T10:50:54.405Z,94940.00
2023-04-16T10:51:54.452Z,94940.00
2023-04-16T10:52:54.476Z,94940.00
2023-04-16T10:53:54.547Z,94938.00
2023-04-16T10:54:54.588Z,94938.00
2023-04-16T10:55:54.633Z,94940.00
2023-04-16T10:56:54.681Z,94940.00
2023-04-16T10:57:54.764Z,94940.00
2023-04-16T10:58:54.799Z,94940.00
2023-04-16T10:59:54.834Z,94940.00
2023-04-16T11:00:54.868Z,94936.00
2023-04-16T11:01:55.038Z,94936.00
2023-04-16T11:02:55.081Z,94934.00
2023-04-16T11:03:55.172Z,94936.00
2023-04-16T11:04:55.191Z,94936.00
2023-04-16T11:05:55.125Z,94932.00
2023-04-16T11:06:55.148Z,94934.00
2023-04-16T11:07:55.222Z,94936.00
2023-04-16T11:08:55.597Z,94936.00
2023-04-16T11:09:55.334Z,94936.00
2023-04-16T11:10:55.393Z,94936.00
2023-04-16T11:11:55.432Z,94936.00
2023-04-16T11:12:55.494Z,94934.00
2023-04-16T11:13:55.538Z,94936.00
2023-04-16T11:14:55.572Z,94936.00
2023-04-16T11:15:55.692Z,94938.00
2023-04-16T11:16:55.710Z,94938.00
2023-04-16T11:17:55.827Z,94936.00
2023-04-16T11:18:56.891Z,94938.00
2023-04-16T11:19:55.886Z,94938.00
2023-04-16T11:20:55.935Z,94940.00
2023-04-16T11:21:56.009Z,94940.00
2023-04-16T11:22:56.046Z,94940.00
2023-04-16T11:23:56.104Z,94938.00
2023-04-16T11:24:56.239Z,94938.00
2023-04-16T11:25:56.228Z,94938.00
2023-04-16T11:26:56.317Z,94938.00
2023-04-16T11:27:56.369Z,94940.00
2023-04-16T11:28:56.407Z,94942.00
2023-04-16T11:29:56.458Z,94940.00
2023-04-16T11:30:56.564Z,94940.00
2023-04-16T11:31:56.574Z,94940.00
2023-04-16T11:32:56.780Z,94940.00
2023-04-16T11:33:56.739Z,94942.00
2023-04-16T11:34:56.727Z,94940.00
2023-04-16T11:35:56.822Z,94942.00
2023-04-16T11:36:56.870Z,94940.00
2023-04-16T11:37:56.892Z,94942.00
2023-04-16T11:38:56.983Z,94944.00
2023-04-16T11:39:57.013Z,94940.00
2023-04-16T11:40:57.092Z,94942.00
2023-04-16T11:41:57.150Z,94940.00
2023-04-16T11:42:58.663Z,94940.00
2023-04-16T11:43:57.331Z,94940.00
2023-04-16T11:44:57.354Z,94938.00